Ship Status Report: callsign AMOUK35

sailwx.info

Track history (hours):
 
Tides and Currents Weather Stations Pressure Air Temp Water Temp Dewpoint Dewpoint Depression Visibility Wind Speed Wind Dir Waves Ship Positions

Callsign AMOUK35 (name unknown)

Last reported at 2016-May-03 17:00 UTC. Time now 2016-May-03 20:08 UTC.
Position N 56°30' W 005°30'.

Barometer 1020.6 mb
Air temperature 9.0 ° C

Date/timePositionNaut miles runAvg speedWind from/ knotsBaromVisibWave heightAir tempDewpointWater temp
2016-May-03 17:00N 56°30' W 005°30'0 0.0 1020.6 9.0
2016-May-03 16:00N 56°30' W 005°30'0 0.0 1020.4 9.2
2016-May-03 15:00N 56°30' W 005°30'0 0.0 1020.1 9.7
2016-May-03 14:00N 56°30' W 005°30'0 0.0 1019.7 9.8
2016-May-03 13:00N 56°30' W 005°30'0 0.0 1019.5 9.8
2016-May-03 12:00N 56°30' W 005°30'0 0.0 1018.6 9.6
2016-May-03 11:00N 56°30' W 005°30'0 0.0 1018.0 9.5
2016-May-03 10:00N 56°30' W 005°30'0 0.0 1017.7 9.0
2016-May-03 09:00N 56°30' W 005°30'0 0.0 1017.2 8.2
2016-May-03 08:00N 56°30' W 005°30'0 0.0 1016.5 8.3
2016-May-03 07:00N 56°30' W 005°30'6 1.5 1016.1 7.6
2016-May-03 03:00N 56°24' W 005°30'0 0.0 1014.5 7.8 2.6
2016-May-03 01:00N 56°24' W 005°30'0 0.0 1014.0 8.0 3.2
2016-May-02 22:00N 56°24' W 005°30'0 0.0 1013.0 8.0 4.2
2016-May-02 21:00N 56°24' W 005°30'0 0.0 1013.0 8.0 2.6
2016-May-02 19:00N 56°24' W 005°30'0 0.0 1011.5 6.4 3.2
2016-May-02 18:00N 56°24' W 005°30'0 0.0 1010.8 8.7 3.1
2016-May-02 17:00N 56°24' W 005°30'0 0.0 1010.6 7.2 2.3
2016-May-02 16:00N 56°24' W 005°30'0 0.0 1009.9 9.0 4.3
2016-May-02 15:00N 56°24' W 005°30'0 0.0 1009.6 8.8 3.3
2016-May-02 14:00N 56°24' W 005°30'0 0.0 1009.1 7.3 5.3
2016-May-02 12:00N 56°24' W 005°30'0 0.0 1007.8 8.4 4.3
2016-May-02 11:00N 56°24' W 005°30'0 0.0 1007.3 9.1 4.9
2016-May-02 10:00N 56°24' W 005°30'0 0.0 1006.7 8.3 5.4
2016-May-02 09:00N 56°24' W 005°30'0 0.0 1005.9 7.8 5.8
2016-May-02 08:00N 56°24' W 005°30'0 0.0 1005.2 9.4 7.1
2016-May-02 06:00N 56°24' W 005°30'0 0.0 1005.0 8.3 6.6
2016-May-02 05:00N 56°24' W 005°30'0 0.0 1004.6 8.5 6.8
2016-May-01 23:00N 56°24' W 005°30'0 0.0 1008.4 12.310.2
2016-May-01 22:00N 56°24' W 005°30'0 0.0 1009.6 12.710.7
2016-May-01 20:00N 56°24' W 005°30'0 0.0 1011.2 11.910.2
2016-May-01 19:00N 56°24' W 005°30'12 2.3 1012.1 10.8 9.0
2016-May-01 14:00N 56°30' W 005°48'18 8.8 1015.7 10.0
2016-May-01 12:00N 56°36' W 006°18'7 6.6 1015.9 8.9
2016-May-01 11:00N 56°36' W 006°30'7 6.6 1015.8 9.1
2016-May-01 10:00N 56°36' W 006°42'7 6.9 1015.6 8.9
2016-May-01 09:00N 56°30' W 006°36'9 8.9 1015.0 8.2
2016-May-01 08:00N 56°24' W 006°24'7 6.9 1014.6 7.1
2016-May-01 07:00N 56°18' W 006°18'0 0.0 1014.0 7.2
2016-May-01 06:00N 56°18' W 006°18'0 0.0 1012.9 7.9
2016-May-01 05:00N 56°18' W 006°18'0 0.0 1012.9 7.5
2016-May-01 04:00N 56°18' W 006°18'0 0.0 1012.4 7.4
2016-May-01 03:00N 56°18' W 006°18'0 0.0 1013.3 7.5
2016-May-01 02:00N 56°18' W 006°18'0 0.0 1014.3 7.3
2016-May-01 01:00N 56°18' W 006°18'0 0.0 1015.5 7.5
2016-May-01 00:00N 56°18' W 006°18'0 0.0 1016.5 7.9
2016-Apr-30 23:00N 56°18' W 006°18'0 0.0 1017.1 7.9
2016-Apr-30 22:00N 56°18' W 006°18'0 0.0 1017.9 7.4
2016-Apr-30 21:00N 56°18' W 006°18'0 0.0 1018.7 7.5
2016-Apr-30 20:00N 56°18' W 006°18'0 0.0 1019.2 8.0
2016-Apr-30 19:00N 56°18' W 006°18'0 0.0 1019.4 8.2
2016-Apr-30 18:00N 56°18' W 006°18'0 0.0 1019.6 8.1
2016-Apr-30 17:00N 56°18' W 006°18'0 0.0 1019.5 8.4
2016-Apr-30 16:00N 56°18' W 006°18'3 3.3 1019.6 8.2
2016-Apr-30 15:00N 56°18' W 006°24'0 0.0 1019.3 8.1
2016-Apr-30 14:00N 56°18' W 006°24'3 3.3 1019.0 8.4
2016-Apr-30 13:00N 56°18' W 006°30'3 3.3 1018.8 8.6
2016-Apr-30 12:00N 56°18' W 006°24'0 0.0 1018.3 7.4
2016-Apr-30 11:00N 56°18' W 006°24'3 3.3 1018.1 7.5
2016-Apr-30 10:00N 56°18' W 006°18'7 6.7 1017.9 7.2
2016-Apr-30 09:00N 56°18' W 006°06'1010.0 1016.9 6.5
2016-Apr-30 08:00N 56°18' W 005°48'12 0.9 1016.8 6.1
2016-Apr-29 19:00N 56°24' W 005°30'0 0.0 1012.7 8.1 0.9
2016-Apr-29 18:00N 56°24' W 005°30'0 0.0 1012.2 8.2 0.9
2016-Apr-29 17:00N 56°24' W 005°30'0 0.0 1011.6 8.3-0.2
2016-Apr-29 15:00N 56°24' W 005°30'0 0.0 1010.8 8.0 1.8
2016-Apr-29 12:00N 56°24' W 005°30'0 0.0 1009.3 7.0-1.5
2016-Apr-29 11:00N 56°24' W 005°30'0 0.0 1009.0 6.4-2.2
2016-Apr-29 07:00N 56°24' W 005°30'0 0.0 1007.3 4.2-0.0
2016-Apr-29 06:00N 56°24' W 005°30'0 0.0 1006.8 4.1
2016-Apr-28 20:00N 56°24' W 005°30'0 0.0 1003.5 3.1
2016-Apr-28 19:00N 56°24' W 005°30'0 0.0 1003.1 3.7
2016-Apr-28 18:00N 56°24' W 005°30'0 0.0 1002.5 3.7
2016-Apr-28 17:00N 56°24' W 005°30'0 0.0 1002.7 3.4
2016-Apr-28 14:00N 56°24' W 005°30'0 0.0 1002.3 3.3
2016-Apr-28 11:00N 56°24' W 005°30'0 0.0 1003.3 1.8
2016-Apr-28 10:00N 56°24' W 005°30'0 0.0 1004.5 1.4
2016-Apr-28 09:00N 56°24' W 005°30'0 0.0 1005.3 1.7
2016-Apr-28 08:00N 56°24' W 005°30'0 0.0 1006.1 1.9
2016-Apr-28 07:00N 56°24' W 005°30'0 0.0 1007.1 3.0
2016-Apr-28 01:00N 56°24' W 005°30'0 0.0 1011.7 3.3-0.6
2016-Apr-28 00:00N 56°24' W 005°30'0 0.0 1012.3 4.0
2016-Apr-27 20:00N 56°24' W 005°30'0 0.0 1013.1 4.9
2016-Apr-27 19:00N 56°24' W 005°30'0 0.0 1013.0 5.3
2016-Apr-27 18:00N 56°24' W 005°30'0 0.0 1013.5 5.1
2016-Apr-27 17:00N 56°24' W 005°30'0 0.0 1013.3 5.8
2016-Apr-27 16:00N 56°24' W 005°30'0 0.0 1013.7 5.1
2016-Apr-27 15:00N 56°24' W 005°30'0 0.0 1013.9 5.6-0.9
2016-Apr-27 13:00N 56°24' W 005°30'0 0.0 1013.9 8.0
2016-Apr-27 12:00N 56°24' W 005°30'0 0.0 1014.2 7.1
2016-Apr-27 11:00N 56°24' W 005°30'0 0.0 1014.5 5.7
2016-Apr-27 10:00N 56°24' W 005°30'0 0.0 1014.7 5.5
2016-Apr-27 09:00N 56°24' W 005°30'0 0.0 1014.9 6.9
2016-Apr-27 08:00N 56°24' W 005°30'6 6.0 1015.1 4.0
2016-Apr-27 07:00N 56°30' W 005°30'0 0.0 1015.1 3.7
2016-Apr-27 06:00N 56°30' W 005°30'0 0.0 1015.2 3.5
2016-Apr-27 05:00N 56°30' W 005°30'0 0.0 1015.3 2.6
2016-Apr-27 04:00N 56°30' W 005°30'0 0.0 1015.7 3.2
2016-Apr-27 03:00N 56°30' W 005°30'0 0.0 1015.9 3.2
2016-Apr-27 02:00N 56°30' W 005°30'0 0.0 1015.9 3.4
2016-Apr-27 01:00N 56°30' W 005°30'0 0.0 1015.9 3.8
2016-Apr-27 00:00N 56°30' W 005°30'0 0.0 1016.0 4.2
2016-Apr-26 23:00N 56°30' W 005°30'0 0.0 1016.1 4.6
2016-Apr-26 22:00N 56°30' W 005°30'0 0.0 1016.1 4.8
2016-Apr-26 21:00N 56°30' W 005°30'0 0.0 1016.3 5.0
2016-Apr-26 20:00N 56°30' W 005°30'0 0.0 1015.9 5.8
2016-Apr-26 18:00N 56°30' W 005°30'0 0.0 1015.6 5.7
2016-Apr-26 17:00N 56°30' W 005°30'10 9.9 1015.0 5.8
2016-Apr-26 16:00N 56°30' W 005°48'9 8.9 1015.3 8.0
2016-Apr-26 15:00N 56°36' W 006°00'9 8.9 1015.2 6.9
2016-Apr-26 14:00N 56°42' W 006°12'9 8.9 1016.3 7.3
2016-Apr-26 13:00N 56°48' W 006°24'9 8.9 1016.8 6.2
2016-Apr-26 12:00N 56°54' W 006°36'1212.4 1016.9 5.2
2016-Apr-26 11:00N 57°06' W 006°42'9 8.9 1017.4 5.0
2016-Apr-26 10:00N 57°12' W 006°54'1212.4 1017.6 4.6
2016-Apr-26 09:00N 57°24' W 007°00'7 6.8 1017.0 6.1
2016-Apr-26 08:00N 57°30' W 007°06'6 6.0 1017.6 5.8
2016-Apr-26 07:00N 57°36' W 007°06'0 0.0 1017.4 5.0
2016-Apr-26 06:00N 57°36' W 007°06'0 0.0 1017.2 4.9
2016-Apr-26 05:00N 57°36' W 007°06'0 0.0 1017.0 4.6
2016-Apr-26 04:00N 57°36' W 007°06'0 0.0 1017.0 4.7
2016-Apr-26 03:00N 57°36' W 007°06'0 0.0 1017.2 3.8
2016-Apr-26 02:00N 57°36' W 007°06'0 0.0 1017.0 3.5
2016-Apr-26 01:00N 57°36' W 007°06'0 0.0 1017.2 3.2
2016-Apr-26 00:00N 57°36' W 007°06'0 0.0 1016.8 3.6
2016-Apr-25 23:00N 57°36' W 007°06'0 0.0 1017.1 2.2
2016-Apr-25 22:00N 57°36' W 007°06'0 0.0 1016.3 4.2
2016-Apr-25 21:00N 57°36' W 007°06'0 0.0 1016.4 4.9
2016-Apr-25 20:00N 57°36' W 007°06'0 0.0 1016.7 4.6
2016-Apr-25 19:00N 57°36' W 007°06'0 0.0 1016.3 5.0
2016-Apr-25 18:00N 57°36' W 007°06'0 0.0 1016.8 4.7
2016-Apr-25 17:00N 57°36' W 007°06'0 0.0 1016.8 5.0
2016-Apr-25 16:00N 57°36' W 007°06'0 0.0 1017.4 4.3
2016-Apr-25 15:00N 57°36' W 007°06'0 0.0 1017.2 5.4
2016-Apr-25 14:00N 57°36' W 007°06'0 0.0 1016.9 5.5
2016-Apr-25 13:00N 57°36' W 007°06'0 0.0 1017.0 5.3
2016-Apr-25 12:00N 57°36' W 007°06'0 0.0 1017.2 4.8
2016-Apr-25 11:00N 57°36' W 007°06'0 0.0 1017.1 4.9
2016-Apr-25 10:00N 57°36' W 007°06'0 0.0 1016.8 4.3
2016-Apr-25 08:00N 57°36' W 007°06'0 0.0 1016.3 5.4
2016-Apr-25 07:00N 57°36' W 007°06'0 0.0 1016.2 5.7
2016-Apr-25 06:00N 57°36' W 007°06'0 0.0 1016.0 5.7
2016-Apr-25 05:00N 57°36' W 007°06'0 0.0 1016.1 5.9
2016-Apr-25 04:00N 57°36' W 007°06'0 0.0 1015.9 6.7
2016-Apr-25 03:00N 57°36' W 007°06'0 0.0 1016.2 6.5
2016-Apr-25 02:00N 57°36' W 007°06'0 0.0 1016.4 6.5
2016-Apr-25 01:00N 57°36' W 007°06'0 0.0 1016.8 6.0
2016-Apr-25 00:00N 57°36' W 007°06'0 0.0 1016.7 6.5
2016-Apr-24 23:00N 57°36' W 007°06'3 3.2 1016.9 6.4
2016-Apr-24 22:00N 57°36' W 007°00'1212.4 1016.9 7.0
2016-Apr-24 21:00N 57°48' W 007°06'0 0.0 1017.4 7.2
2016-Apr-24 20:00N 57°48' W 007°06'0 0.0 1017.8 7.5
2016-Apr-24 19:00N 57°48' W 007°06'0 0.0 1018.1 7.9
2016-Apr-24 18:00N 57°48' W 007°06'0 0.0 1019.0 8.1
2016-Apr-24 17:00N 57°48' W 007°06'0 0.0 1019.5 8.6
2016-Apr-24 16:00N 57°48' W 007°06'0 0.0 1020.2 8.0
2016-Apr-24 15:00N 57°48' W 007°06'0 0.0 1021.0 7.5
2016-Apr-24 14:00N 57°48' W 007°06'7 6.8 1021.4 7.5
2016-Apr-24 13:00N 57°42' W 007°00'3 3.2 1021.8 9.4
2016-Apr-24 12:00N 57°42' W 007°06'0 0.0 1022.2 7.1
2016-Apr-24 11:00N 57°42' W 007°06'1111.3 1021.9 6.8
2016-Apr-24 10:00N 57°36' W 006°48'7 6.8 1022.2 6.1
2016-Apr-24 09:00N 57°30' W 006°42'3 3.2 1021.9 6.2
2016-Apr-24 08:00N 57°30' W 006°36'0 0.0 1022.0 6.3
2016-Apr-24 07:00N 57°30' W 006°36'0 0.0 1022.0 5.8
2016-Apr-24 06:00N 57°30' W 006°36'0 0.0 1021.8 6.0
2016-Apr-24 05:00N 57°30' W 006°36'0 0.0 1021.6 6.8
2016-Apr-24 04:00N 57°30' W 006°36'0 0.0 1021.6 7.3
2016-Apr-24 03:00N 57°30' W 006°36'0 0.0 1021.8 7.5
2016-Apr-24 02:00N 57°30' W 006°36'0 0.0 1022.2 7.6
2016-Apr-24 01:00N 57°30' W 006°36'0 0.0 1022.4 7.2
2016-Apr-23 23:00N 57°30' W 006°36'0 0.0 1023.3 6.5
2016-Apr-23 22:00N 57°30' W 006°36'0 0.0 1023.9 6.5
2016-Apr-23 21:00N 57°30' W 006°36'0 0.0 1024.1 6.7
2016-Apr-23 20:00N 57°30' W 006°36'0 0.0 1024.5 6.3
2016-Apr-23 19:00N 57°30' W 006°36'0 0.0 1024.9 6.3
2016-Apr-23 18:00N 57°30' W 006°36'0 0.0 1025.2 6.0
2016-Apr-23 17:00N 57°30' W 006°36'   1025.3 6.0
Track history (hours):
 
Tides and Currents Weather Stations Pressure Air Temp Water Temp Dewpoint Dewpoint Depression Visibility Wind Speed Wind Dir Waves Ship Positions

Callsign AMOUK35 (name unknown)

Last reported at 2016-May-03 17:00 UTC. Time now 2016-May-03 20:08 UTC.
Position N 56°30' W 005°30'.

Barometer 1020.6 mb
Air temperature 9.0 ° C

Date/timePositionNaut miles runAvg speedWind from/ knotsBaromVisibWave heightAir tempDewpointWater temp
2016-May-03 17:00N 56°30' W 005°30'0 0.0 1020.6 9.0
2016-May-03 16:00N 56°30' W 005°30'0 0.0 1020.4 9.2
2016-May-03 15:00N 56°30' W 005°30'0 0.0 1020.1 9.7
2016-May-03 14:00N 56°30' W 005°30'0 0.0 1019.7 9.8
2016-May-03 13:00N 56°30' W 005°30'0 0.0 1019.5 9.8
2016-May-03 12:00N 56°30' W 005°30'0 0.0 1018.6 9.6
2016-May-03 11:00N 56°30' W 005°30'0 0.0 1018.0 9.5
2016-May-03 10:00N 56°30' W 005°30'0 0.0 1017.7 9.0
2016-May-03 09:00N 56°30' W 005°30'0 0.0 1017.2 8.2
2016-May-03 08:00N 56°30' W 005°30'0 0.0 1016.5 8.3
2016-May-03 07:00N 56°30' W 005°30'6 1.5 1016.1 7.6
2016-May-03 03:00N 56°24' W 005°30'0 0.0 1014.5 7.8 2.6
2016-May-03 01:00N 56°24' W 005°30'0 0.0 1014.0 8.0 3.2
2016-May-02 22:00N 56°24' W 005°30'0 0.0 1013.0 8.0 4.2
2016-May-02 21:00N 56°24' W 005°30'0 0.0 1013.0 8.0 2.6
2016-May-02 19:00N 56°24' W 005°30'0 0.0 1011.5 6.4 3.2
2016-May-02 18:00N 56°24' W 005°30'0 0.0 1010.8 8.7 3.1
2016-May-02 17:00N 56°24' W 005°30'0 0.0 1010.6 7.2 2.3
2016-May-02 16:00N 56°24' W 005°30'0 0.0 1009.9 9.0 4.3
2016-May-02 15:00N 56°24' W 005°30'0 0.0 1009.6 8.8 3.3
2016-May-02 14:00N 56°24' W 005°30'0 0.0 1009.1 7.3 5.3
2016-May-02 12:00N 56°24' W 005°30'0 0.0 1007.8 8.4 4.3
2016-May-02 11:00N 56°24' W 005°30'0 0.0 1007.3 9.1 4.9
2016-May-02 10:00N 56°24' W 005°30'0 0.0 1006.7 8.3 5.4
2016-May-02 09:00N 56°24' W 005°30'0 0.0 1005.9 7.8 5.8
2016-May-02 08:00N 56°24' W 005°30'0 0.0 1005.2 9.4 7.1
2016-May-02 06:00N 56°24' W 005°30'0 0.0 1005.0 8.3 6.6
2016-May-02 05:00N 56°24' W 005°30'0 0.0 1004.6 8.5 6.8
2016-May-01 23:00N 56°24' W 005°30'0 0.0 1008.4 12.310.2
2016-May-01 22:00N 56°24' W 005°30'0 0.0 1009.6 12.710.7
2016-May-01 20:00N 56°24' W 005°30'0 0.0 1011.2 11.910.2
2016-May-01 19:00N 56°24' W 005°30'12 2.3 1012.1 10.8 9.0
2016-May-01 14:00N 56°30' W 005°48'18 8.8 1015.7 10.0
2016-May-01 12:00N 56°36' W 006°18'7 6.6 1015.9 8.9
2016-May-01 11:00N 56°36' W 006°30'7 6.6 1015.8 9.1
2016-May-01 10:00N 56°36' W 006°42'7 6.9 1015.6 8.9
2016-May-01 09:00N 56°30' W 006°36'9 8.9 1015.0 8.2
2016-May-01 08:00N 56°24' W 006°24'7 6.9 1014.6 7.1
2016-May-01 07:00N 56°18' W 006°18'0 0.0 1014.0 7.2
2016-May-01 06:00N 56°18' W 006°18'0 0.0 1012.9 7.9
2016-May-01 05:00N 56°18' W 006°18'0 0.0 1012.9 7.5
2016-May-01 04:00N 56°18' W 006°18'0 0.0 1012.4 7.4
2016-May-01 03:00N 56°18' W 006°18'0 0.0 1013.3 7.5
2016-May-01 02:00N 56°18' W 006°18'0 0.0 1014.3 7.3
2016-May-01 01:00N 56°18' W 006°18'0 0.0 1015.5 7.5
2016-May-01 00:00N 56°18' W 006°18'0 0.0 1016.5 7.9
2016-Apr-30 23:00N 56°18' W 006°18'0 0.0 1017.1 7.9
2016-Apr-30 22:00N 56°18' W 006°18'0 0.0 1017.9 7.4
2016-Apr-30 21:00N 56°18' W 006°18'0 0.0 1018.7 7.5
2016-Apr-30 20:00N 56°18' W 006°18'0 0.0 1019.2 8.0
2016-Apr-30 19:00N 56°18' W 006°18'0 0.0 1019.4 8.2
2016-Apr-30 18:00N 56°18' W 006°18'0 0.0 1019.6 8.1
2016-Apr-30 17:00N 56°18' W 006°18'0 0.0 1019.5 8.4
2016-Apr-30 16:00N 56°18' W 006°18'3 3.3 1019.6 8.2
2016-Apr-30 15:00N 56°18' W 006°24'0 0.0 1019.3 8.1
2016-Apr-30 14:00N 56°18' W 006°24'3 3.3 1019.0 8.4
2016-Apr-30 13:00N 56°18' W 006°30'3 3.3 1018.8 8.6
2016-Apr-30 12:00N 56°18' W 006°24'0 0.0 1018.3 7.4
2016-Apr-30 11:00N 56°18' W 006°24'3 3.3 1018.1 7.5
2016-Apr-30 10:00N 56°18' W 006°18'7 6.7 1017.9 7.2
2016-Apr-30 09:00N 56°18' W 006°06'1010.0 1016.9 6.5
2016-Apr-30 08:00N 56°18' W 005°48'12 0.9 1016.8 6.1
2016-Apr-29 19:00N 56°24' W 005°30'0 0.0 1012.7 8.1 0.9
2016-Apr-29 18:00N 56°24' W 005°30'0 0.0 1012.2 8.2 0.9
2016-Apr-29 17:00N 56°24' W 005°30'0 0.0 1011.6 8.3-0.2
2016-Apr-29 15:00N 56°24' W 005°30'0 0.0 1010.8 8.0 1.8
2016-Apr-29 12:00N 56°24' W 005°30'0 0.0 1009.3 7.0-1.5
2016-Apr-29 11:00N 56°24' W 005°30'0 0.0 1009.0 6.4-2.2
2016-Apr-29 07:00N 56°24' W 005°30'0 0.0 1007.3 4.2-0.0
2016-Apr-29 06:00N 56°24' W 005°30'0 0.0 1006.8 4.1
2016-Apr-28 20:00N 56°24' W 005°30'0 0.0 1003.5 3.1
2016-Apr-28 19:00N 56°24' W 005°30'0 0.0 1003.1 3.7
2016-Apr-28 18:00N 56°24' W 005°30'0 0.0 1002.5 3.7
2016-Apr-28 17:00N 56°24' W 005°30'0 0.0 1002.7 3.4
2016-Apr-28 14:00N 56°24' W 005°30'0 0.0 1002.3 3.3
2016-Apr-28 11:00N 56°24' W 005°30'0 0.0 1003.3 1.8
2016-Apr-28 10:00N 56°24' W 005°30'0 0.0 1004.5 1.4
2016-Apr-28 09:00N 56°24' W 005°30'0 0.0 1005.3 1.7
2016-Apr-28 08:00N 56°24' W 005°30'0 0.0 1006.1 1.9
2016-Apr-28 07:00N 56°24' W 005°30'0 0.0 1007.1 3.0
2016-Apr-28 01:00N 56°24' W 005°30'0 0.0 1011.7 3.3-0.6
2016-Apr-28 00:00N 56°24' W 005°30'0 0.0 1012.3 4.0
2016-Apr-27 20:00N 56°24' W 005°30'0 0.0 1013.1 4.9
2016-Apr-27 19:00N 56°24' W 005°30'0 0.0 1013.0 5.3
2016-Apr-27 18:00N 56°24' W 005°30'0 0.0 1013.5 5.1
2016-Apr-27 17:00N 56°24' W 005°30'0 0.0 1013.3 5.8
2016-Apr-27 16:00N 56°24' W 005°30'0 0.0 1013.7 5.1
2016-Apr-27 15:00N 56°24' W 005°30'0 0.0 1013.9 5.6-0.9
2016-Apr-27 13:00N 56°24' W 005°30'0 0.0 1013.9 8.0
2016-Apr-27 12:00N 56°24' W 005°30'0 0.0 1014.2 7.1
2016-Apr-27 11:00N 56°24' W 005°30'0 0.0 1014.5 5.7
2016-Apr-27 10:00N 56°24' W 005°30'0 0.0 1014.7 5.5
2016-Apr-27 09:00N 56°24' W 005°30'0 0.0 1014.9 6.9
2016-Apr-27 08:00N 56°24' W 005°30'6 6.0 1015.1 4.0
2016-Apr-27 07:00N 56°30' W 005°30'0 0.0 1015.1 3.7
2016-Apr-27 06:00N 56°30' W 005°30'0 0.0 1015.2 3.5
2016-Apr-27 05:00N 56°30' W 005°30'0 0.0 1015.3 2.6
2016-Apr-27 04:00N 56°30' W 005°30'0 0.0 1015.7 3.2
2016-Apr-27 03:00N 56°30' W 005°30'0 0.0 1015.9 3.2
2016-Apr-27 02:00N 56°30' W 005°30'0 0.0 1015.9 3.4
2016-Apr-27 01:00N 56°30' W 005°30'0 0.0 1015.9 3.8
2016-Apr-27 00:00N 56°30' W 005°30'0 0.0 1016.0 4.2
2016-Apr-26 23:00N 56°30' W 005°30'0 0.0 1016.1 4.6
2016-Apr-26 22:00N 56°30' W 005°30'0 0.0 1016.1 4.8
2016-Apr-26 21:00N 56°30' W 005°30'0 0.0 1016.3 5.0
2016-Apr-26 20:00N 56°30' W 005°30'0 0.0 1015.9 5.8
2016-Apr-26 18:00N 56°30' W 005°30'0 0.0 1015.6 5.7
2016-Apr-26 17:00N 56°30' W 005°30'10 9.9 1015.0 5.8
2016-Apr-26 16:00N 56°30' W 005°48'9 8.9 1015.3 8.0
2016-Apr-26 15:00N 56°36' W 006°00'9 8.9 1015.2 6.9
2016-Apr-26 14:00N 56°42' W 006°12'9 8.9 1016.3 7.3
2016-Apr-26 13:00N 56°48' W 006°24'9 8.9 1016.8 6.2
2016-Apr-26 12:00N 56°54' W 006°36'1212.4 1016.9 5.2
2016-Apr-26 11:00N 57°06' W 006°42'9 8.9 1017.4 5.0
2016-Apr-26 10:00N 57°12' W 006°54'1212.4 1017.6 4.6
2016-Apr-26 09:00N 57°24' W 007°00'7 6.8 1017.0 6.1
2016-Apr-26 08:00N 57°30' W 007°06'6 6.0 1017.6 5.8
2016-Apr-26 07:00N 57°36' W 007°06'0 0.0 1017.4 5.0
2016-Apr-26 06:00N 57°36' W 007°06'0 0.0 1017.2 4.9
2016-Apr-26 05:00N 57°36' W 007°06'0 0.0 1017.0 4.6
2016-Apr-26 04:00N 57°36' W 007°06'0 0.0 1017.0 4.7
2016-Apr-26 03:00N 57°36' W 007°06'0 0.0 1017.2 3.8
2016-Apr-26 02:00N 57°36' W 007°06'0 0.0 1017.0 3.5
2016-Apr-26 01:00N 57°36' W 007°06'0 0.0 1017.2 3.2
2016-Apr-26 00:00N 57°36' W 007°06'0 0.0 1016.8 3.6
2016-Apr-25 23:00N 57°36' W 007°06'0 0.0 1017.1 2.2
2016-Apr-25 22:00N 57°36' W 007°06'0 0.0 1016.3 4.2
2016-Apr-25 21:00N 57°36' W 007°06'0 0.0 1016.4 4.9
2016-Apr-25 20:00N 57°36' W 007°06'0 0.0 1016.7 4.6
2016-Apr-25 19:00N 57°36' W 007°06'0 0.0 1016.3 5.0
2016-Apr-25 18:00N 57°36' W 007°06'0 0.0 1016.8 4.7
2016-Apr-25 17:00N 57°36' W 007°06'0 0.0 1016.8 5.0
2016-Apr-25 16:00N 57°36' W 007°06'0 0.0 1017.4 4.3
2016-Apr-25 15:00N 57°36' W 007°06'0 0.0 1017.2 5.4
2016-Apr-25 14:00N 57°36' W 007°06'0 0.0 1016.9 5.5
2016-Apr-25 13:00N 57°36' W 007°06'0 0.0 1017.0 5.3
2016-Apr-25 12:00N 57°36' W 007°06'0 0.0 1017.2 4.8
2016-Apr-25 11:00N 57°36' W 007°06'0 0.0 1017.1 4.9
2016-Apr-25 10:00N 57°36' W 007°06'0 0.0 1016.8 4.3
2016-Apr-25 08:00N 57°36' W 007°06'0 0.0 1016.3 5.4
2016-Apr-25 07:00N 57°36' W 007°06'0 0.0 1016.2 5.7
2016-Apr-25 06:00N 57°36' W 007°06'0 0.0 1016.0 5.7
2016-Apr-25 05:00N 57°36' W 007°06'0 0.0 1016.1 5.9
2016-Apr-25 04:00N 57°36' W 007°06'0 0.0 1015.9 6.7
2016-Apr-25 03:00N 57°36' W 007°06'0 0.0 1016.2 6.5
2016-Apr-25 02:00N 57°36' W 007°06'0 0.0 1016.4 6.5
2016-Apr-25 01:00N 57°36' W 007°06'0 0.0 1016.8 6.0
2016-Apr-25 00:00N 57°36' W 007°06'0 0.0 1016.7 6.5
2016-Apr-24 23:00N 57°36' W 007°06'3 3.2 1016.9 6.4
2016-Apr-24 22:00N 57°36' W 007°00'1212.4 1016.9 7.0
2016-Apr-24 21:00N 57°48' W 007°06'0 0.0 1017.4 7.2
2016-Apr-24 20:00N 57°48' W 007°06'0 0.0 1017.8 7.5
2016-Apr-24 19:00N 57°48' W 007°06'0 0.0 1018.1 7.9
2016-Apr-24 18:00N 57°48' W 007°06'0 0.0 1019.0 8.1
2016-Apr-24 17:00N 57°48' W 007°06'0 0.0 1019.5 8.6
2016-Apr-24 16:00N 57°48' W 007°06'0 0.0 1020.2 8.0
2016-Apr-24 15:00N 57°48' W 007°06'0 0.0 1021.0 7.5
2016-Apr-24 14:00N 57°48' W 007°06'7 6.8 1021.4 7.5
2016-Apr-24 13:00N 57°42' W 007°00'3 3.2 1021.8 9.4
2016-Apr-24 12:00N 57°42' W 007°06'0 0.0 1022.2 7.1
2016-Apr-24 11:00N 57°42' W 007°06'1111.3 1021.9 6.8
2016-Apr-24 10:00N 57°36' W 006°48'7 6.8 1022.2 6.1
2016-Apr-24 09:00N 57°30' W 006°42'3 3.2 1021.9 6.2
2016-Apr-24 08:00N 57°30' W 006°36'0 0.0 1022.0 6.3
2016-Apr-24 07:00N 57°30' W 006°36'0 0.0 1022.0 5.8
2016-Apr-24 06:00N 57°30' W 006°36'0 0.0 1021.8 6.0
2016-Apr-24 05:00N 57°30' W 006°36'0 0.0 1021.6 6.8
2016-Apr-24 04:00N 57°30' W 006°36'0 0.0 1021.6 7.3
2016-Apr-24 03:00N 57°30' W 006°36'0 0.0 1021.8 7.5
2016-Apr-24 02:00N 57°30' W 006°36'0 0.0 1022.2 7.6
2016-Apr-24 01:00N 57°30' W 006°36'0 0.0 1022.4 7.2
2016-Apr-23 23:00N 57°30' W 006°36'0 0.0 1023.3 6.5
2016-Apr-23 22:00N 57°30' W 006°36'0 0.0 1023.9 6.5
2016-Apr-23 21:00N 57°30' W 006°36'0 0.0 1024.1 6.7
2016-Apr-23 20:00N 57°30' W 006°36'0 0.0 1024.5 6.3
2016-Apr-23 19:00N 57°30' W 006°36'0 0.0 1024.9 6.3
2016-Apr-23 18:00N 57°30' W 006°36'0 0.0 1025.2 6.0
2016-Apr-23 17:00N 57°30' W 006°36'   1025.3 6.0

Dump ship's entire track history